sensor_id;sensor_type;location;lat;lon;timestamp;temperature;humidity
2913;DHT22;1466;48.778;9.166;2022-08-21T00:01:27;21.70;77.60
2913;DHT22;1466;48.778;9.166;2022-08-21T00:03:54;21.60;77.70
2913;DHT22;1466;48.778;9.166;2022-08-21T00:06:20;21.60;77.80
2913;DHT22;1466;48.778;9.166;2022-08-21T00:08:46;21.60;77.80
2913;DHT22;1466;48.778;9.166;2022-08-21T00:11:12;21.50;77.70
2913;DHT22;1466;48.778;9.166;2022-08-21T00:13:38;21.50;77.90
2913;DHT22;1466;48.778;9.166;2022-08-21T00:16:04;21.50;78.10
2913;DHT22;1466;48.778;9.166;2022-08-21T00:18:30;21.40;78.10
2913;DHT22;1466;48.778;9.166;2022-08-21T00:20:55;21.40;78.20
2913;DHT22;1466;48.778;9.166;2022-08-21T00:23:21;21.50;78.40
2913;DHT22;1466;48.778;9.166;2022-08-21T00:25:47;21.50;78.40
2913;DHT22;1466;48.778;9.166;2022-08-21T00:28:13;21.50;78.50
2913;DHT22;1466;48.778;9.166;2022-08-21T00:30:39;21.50;78.50
2913;DHT22;1466;48.778;9.166;2022-08-21T00:33:06;21.50;78.50
2913;DHT22;1466;48.778;9.166;2022-08-21T00:35:35;21.40;78.50
2913;DHT22;1466;48.778;9.166;2022-08-21T00:38:03;21.40;78.60
2913;DHT22;1466;48.778;9.166;2022-08-21T00:40:39;21.30;78.80
2913;DHT22;1466;48.778;9.166;2022-08-21T00:43:07;21.20;78.90
2913;DHT22;1466;48.778;9.166;2022-08-21T00:45:33;21.10;79.00
2913;DHT22;1466;48.778;9.166;2022-08-21T00:47:59;21.10;79.40
2913;DHT22;1466;48.778;9.166;2022-08-21T00:50:29;21.00;79.50
2913;DHT22;1466;48.778;9.166;2022-08-21T00:52:56;21.00;79.80
2913;DHT22;1466;48.778;9.166;2022-08-21T00:55:23;21.10;79.70
2913;DHT22;1466;48.778;9.166;2022-08-21T00:57:51;21.10;79.80
2913;DHT22;1466;48.778;9.166;2022-08-21T01:00:23;21.10;79.80
2913;DHT22;1466;48.778;9.166;2022-08-21T01:02:49;21.10;79.80
2913;DHT22;1466;48.778;9.166;2022-08-21T01:05:15;21.00;79.70
2913;DHT22;1466;48.778;9.166;2022-08-21T01:07:42;21.00;79.80
2913;DHT22;1466;48.778;9.166;2022-08-21T01:10:08;21.00;79.90
2913;DHT22;1466;48.778;9.166;2022-08-21T01:12:34;21.00;79.90
2913;DHT22;1466;48.778;9.166;2022-08-21T01:15:03;21.00;79.80
2913;DHT22;1466;48.778;9.166;2022-08-21T01:17:29;20.90;79.60
2913;DHT22;1466;48.778;9.166;2022-08-21T01:20:01;20.90;79.70
2913;DHT22;1466;48.778;9.166;2022-08-21T01:22:27;20.90;79.90
2913;DHT22;1466;48.778;9.166;2022-08-21T01:24:53;20.80;79.90
2913;DHT22;1466;48.778;9.166;2022-08-21T01:27:18;20.80;80.00
2913;DHT22;1466;48.778;9.166;2022-08-21T01:29:55;20.90;80.00
2913;DHT22;1466;48.778;9.166;2022-08-21T01:32:23;20.90;80.70
2913;DHT22;1466;48.778;9.166;2022-08-21T01:34:50;20.80;80.00
2913;DHT22;1466;48.778;9.166;2022-08-21T01:37:17;20.80;80.00
2913;DHT22;1466;48.778;9.166;2022-08-21T01:39:43;20.80;80.10
2913;DHT22;1466;48.778;9.166;2022-08-21T01:42:09;20.80;80.00
2913;DHT22;1466;48.778;9.166;2022-08-21T01:44:36;20.70;80.20
2913;DHT22;1466;48.778;9.166;2022-08-21T01:47:08;20.80;80.30
2913;DHT22;1466;48.778;9.166;2022-08-21T01:49:35;20.80;80.30
2913;DHT22;1466;48.778;9.166;2022-08-21T01:52:01;20.80;80.20
2913;DHT22;1466;48.778;9.166;2022-08-21T01:54:27;20.90;80.30
2913;DHT22;1466;48.778;9.166;2022-08-21T01:56:53;20.80;80.10
2913;DHT22;1466;48.778;9.166;2022-08-21T01:59:20;20.80;80.10
2913;DHT22;1466;48.778;9.166;2022-08-21T02:01:47;20.70;80.20
2913;DHT22;1466;48.778;9.166;2022-08-21T02:04:13;20.60;80.40
2913;DHT22;1466;48.778;9.166;2022-08-21T02:06:39;20.60;80.60
2913;DHT22;1466;48.778;9.166;2022-08-21T02:09:07;20.60;80.60
2913;DHT22;1466;48.778;9.166;2022-08-21T02:11:34;20.50;80.60
2913;DHT22;1466;48.778;9.166;2022-08-21T02:14:00;20.40;80.80
2913;DHT22;1466;48.778;9.166;2022-08-21T02:16:25;20.40;81.00
2913;DHT22;1466;48.778;9.166;2022-08-21T02:18:51;20.40;81.10
2913;DHT22;1466;48.778;9.166;2022-08-21T02:21:16;20.30;81.20
2913;DHT22;1466;48.778;9.166;2022-08-21T02:23:43;20.30;81.40
2913;DHT22;1466;48.778;9.166;2022-08-21T02:26:09;20.40;81.50
2913;DHT22;1466;48.778;9.166;2022-08-21T02:28:36;20.40;81.50
2913;DHT22;1466;48.778;9.166;2022-08-21T02:31:03;20.30;81.40
2913;DHT22;1466;48.778;9.166;2022-08-21T02:33:29;20.30;81.50
2913;DHT22;1466;48.778;9.166;2022-08-21T02:35:54;20.20;81.50
2913;DHT22;1466;48.778;9.166;2022-08-21T02:38:26;20.20;81.60
2913;DHT22;1466;48.778;9.166;2022-08-21T02:40:53;20.20;81.60
2913;DHT22;1466;48.778;9.166;2022-08-21T02:43:21;20.10;81.60
2913;DHT22;1466;48.778;9.166;2022-08-21T02:45:48;20.10;81.80
2913;DHT22;1466;48.778;9.166;2022-08-21T02:48:17;20.10;82.00
2913;DHT22;1466;48.778;9.166;2022-08-21T02:50:48;20.10;82.30
2913;DHT22;1466;48.778;9.166;2022-08-21T02:53:16;20.00;82.20
2913;DHT22;1466;48.778;9.166;2022-08-21T02:55:44;20.00;82.30
2913;DHT22;1466;48.778;9.166;2022-08-21T02:58:10;20.00;82.60
2913;DHT22;1466;48.778;9.166;2022-08-21T03:00:37;19.90;82.70
2913;DHT22;1466;48.778;9.166;2022-08-21T03:03:03;19.90;83.30
2913;DHT22;1466;48.778;9.166;2022-08-21T03:05:30;19.90;83.70
2913;DHT22;1466;48.778;9.166;2022-08-21T03:07:57;19.90;83.90
2913;DHT22;1466;48.778;9.166;2022-08-21T03:10:24;19.90;83.80
2913;DHT22;1466;48.778;9.166;2022-08-21T03:12:50;19.90;84.20
2913;DHT22;1466;48.778;9.166;2022-08-21T03:15:19;19.80;84.40
2913;DHT22;1466;48.778;9.166;2022-08-21T03:17:46;19.80;84.90
2913;DHT22;1466;48.778;9.166;2022-08-21T03:20:14;19.80;85.10
2913;DHT22;1466;48.778;9.166;2022-08-21T03:22:40;19.70;85.10
2913;DHT22;1466;48.778;9.166;2022-08-21T03:25:06;19.70;85.20
2913;DHT22;1466;48.778;9.166;2022-08-21T03:27:32;19.70;85.20
2913;DHT22;1466;48.778;9.166;2022-08-21T03:29:59;19.70;85.20
2913;DHT22;1466;48.778;9.166;2022-08-21T03:32:25;19.70;85.50
2913;DHT22;1466;48.778;9.166;2022-08-21T03:34:51;19.70;85.60
2913;DHT22;1466;48.778;9.166;2022-08-21T03:37:17;19.70;85.70
2913;DHT22;1466;48.778;9.166;2022-08-21T03:39:43;19.80;85.70
2913;DHT22;1466;48.778;9.166;2022-08-21T03:42:10;19.80;85.70
2913;DHT22;1466;48.778;9.166;2022-08-21T03:44:36;19.70;85.70
2913;DHT22;1466;48.778;9.166;2022-08-21T03:47:02;19.70;85.90
2913;DHT22;1466;48.778;9.166;2022-08-21T03:49:28;19.80;86.10
2913;DHT22;1466;48.778;9.166;2022-08-21T03:51:53;19.80;86.00
2913;DHT22;1466;48.778;9.166;2022-08-21T03:54:20;19.80;85.90
2913;DHT22;1466;48.778;9.166;2022-08-21T03:56:45;19.80;85.70
2913;DHT22;1466;48.778;9.166;2022-08-21T03:59:11;19.80;85.70
2913;DHT22;1466;48.778;9.166;2022-08-21T04:01:37;19.80;85.50
2913;DHT22;1466;48.778;9.166;2022-08-21T04:04:04;19.60;85.50
2913;DHT22;1466;48.778;9.166;2022-08-21T04:06:31;19.50;85.60
2913;DHT22;1466;48.778;9.166;2022-08-21T04:08:56;19.40;86.10
2913;DHT22;1466;48.778;9.166;2022-08-21T04:11:22;19.20;86.30
2913;DHT22;1466;48.778;9.166;2022-08-21T04:13:48;19.20;87.00
2913;DHT22;1466;48.778;9.166;2022-08-21T04:16:14;19.20;87.70
2913;DHT22;1466;48.778;9.166;2022-08-21T04:18:40;19.30;88.00
2913;DHT22;1466;48.778;9.166;2022-08-21T04:21:08;19.20;87.80
2913;DHT22;1466;48.778;9.166;2022-08-21T04:23:36;19.10;87.80
2913;DHT22;1466;48.778;9.166;2022-08-21T04:26:01;19.00;88.10
2913;DHT22;1466;48.778;9.166;2022-08-21T04:28:27;19.10;88.70
2913;DHT22;1466;48.778;9.166;2022-08-21T04:30:53;19.10;88.60
2913;DHT22;1466;48.778;9.166;2022-08-21T04:33:20;19.20;88.60
2913;DHT22;1466;48.778;9.166;2022-08-21T04:35:46;19.20;88.50
2913;DHT22;1466;48.778;9.166;2022-08-21T04:38:11;19.20;88.60
2913;DHT22;1466;48.778;9.166;2022-08-21T04:40:37;19.20;88.50
2913;DHT22;1466;48.778;9.166;2022-08-21T04:43:05;19.20;88.50
2913;DHT22;1466;48.778;9.166;2022-08-21T04:45:34;19.10;88.40
2913;DHT22;1466;48.778;9.166;2022-08-21T04:48:03;19.20;88.30
2913;DHT22;1466;48.778;9.166;2022-08-21T04:50:42;19.30;88.40
2913;DHT22;1466;48.778;9.166;2022-08-21T04:55:57;19.40;87.80
2913;DHT22;1466;48.778;9.166;2022-08-21T04:58:26;19.40;87.40
2913;DHT22;1466;48.778;9.166;2022-08-21T05:00:54;19.40;87.30
2913;DHT22;1466;48.778;9.166;2022-08-21T05:03:20;19.40;87.20
2913;DHT22;1466;48.778;9.166;2022-08-21T05:05:47;19.40;87.20
2913;DHT22;1466;48.778;9.166;2022-08-21T05:08:15;19.40;87.30
2913;DHT22;1466;48.778;9.166;2022-08-21T05:10:42;19.40;87.20
2913;DHT22;1466;48.778;9.166;2022-08-21T05:13:11;19.50;87.20
2913;DHT22;1466;48.778;9.166;2022-08-21T05:15:38;19.50;87.00
2913;DHT22;1466;48.778;9.166;2022-08-21T05:18:04;19.60;87.00
2913;DHT22;1466;48.778;9.166;2022-08-21T05:20:29;19.50;86.60
2913;DHT22;1466;48.778;9.166;2022-08-21T05:22:56;19.50;86.80
2913;DHT22;1466;48.778;9.166;2022-08-21T05:25:21;19.40;86.70
2913;DHT22;1466;48.778;9.166;2022-08-21T05:27:47;19.50;87.20
2913;DHT22;1466;48.778;9.166;2022-08-21T05:30:13;19.50;87.20
2913;DHT22;1466;48.778;9.166;2022-08-21T05:32:38;19.50;87.20
2913;DHT22;1466;48.778;9.166;2022-08-21T05:35:06;19.60;87.20
2913;DHT22;1466;48.778;9.166;2022-08-21T05:37:32;19.50;87.10
2913;DHT22;1466;48.778;9.166;2022-08-21T05:39:59;19.60;87.20
2913;DHT22;1466;48.778;9.166;2022-08-21T05:42:24;19.50;87.10
2913;DHT22;1466;48.778;9.166;2022-08-21T05:44:50;19.60;87.30
2913;DHT22;1466;48.778;9.166;2022-08-21T05:47:16;19.60;87.10
2913;DHT22;1466;48.778;9.166;2022-08-21T05:49:42;19.60;87.20
2913;DHT22;1466;48.778;9.166;2022-08-21T05:52:07;19.60;87.00
2913;DHT22;1466;48.778;9.166;2022-08-21T05:54:33;19.60;87.00
2913;DHT22;1466;48.778;9.166;2022-08-21T05:57:01;19.70;87.10
2913;DHT22;1466;48.778;9.166;2022-08-21T05:59:26;19.70;87.10
2913;DHT22;1466;48.778;9.166;2022-08-21T06:01:53;19.70;87.00
2913;DHT22;1466;48.778;9.166;2022-08-21T06:04:18;19.70;86.90
2913;DHT22;1466;48.778;9.166;2022-08-21T06:06:44;19.80;87.00
2913;DHT22;1466;48.778;9.166;2022-08-21T06:09:09;19.90;86.90
2913;DHT22;1466;48.778;9.166;2022-08-21T06:11:35;19.90;86.80
2913;DHT22;1466;48.778;9.166;2022-08-21T06:14:01;20.00;86.70
2913;DHT22;1466;48.778;9.166;2022-08-21T06:16:27;20.10;86.70
2913;DHT22;1466;48.778;9.166;2022-08-21T06:18:53;20.20;86.50
2913;DHT22;1466;48.778;9.166;2022-08-21T06:21:19;20.20;86.20
2913;DHT22;1466;48.778;9.166;2022-08-21T06:23:45;20.30;86.20
2913;DHT22;1466;48.778;9.166;2022-08-21T06:26:12;20.30;85.70
2913;DHT22;1466;48.778;9.166;2022-08-21T06:28:38;20.20;85.60
2913;DHT22;1466;48.778;9.166;2022-08-21T06:31:15;20.20;85.90
2913;DHT22;1466;48.778;9.166;2022-08-21T06:33:42;20.20;85.80
2913;DHT22;1466;48.778;9.166;2022-08-21T06:36:08;20.30;86.00
2913;DHT22;1466;48.778;9.166;2022-08-21T06:38:35;20.40;85.90
2913;DHT22;1466;48.778;9.166;2022-08-21T06:41:00;20.40;85.70
2913;DHT22;1466;48.778;9.166;2022-08-21T06:43:26;20.50;85.60
2913;DHT22;1466;48.778;9.166;2022-08-21T06:45:52;20.50;85.30
2913;DHT22;1466;48.778;9.166;2022-08-21T06:48:18;20.60;85.40
2913;DHT22;1466;48.778;9.166;2022-08-21T06:50:43;20.60;85.20
2913;DHT22;1466;48.778;9.166;2022-08-21T06:53:11;20.70;85.10
2913;DHT22;1466;48.778;9.166;2022-08-21T06:55:38;20.90;85.00
2913;DHT22;1466;48.778;9.166;2022-08-21T06:58:05;21.00;84.90
2913;DHT22;1466;48.778;9.166;2022-08-21T07:00:31;21.00;84.50
2913;DHT22;1466;48.778;9.166;2022-08-21T07:02:58;21.00;84.30
2913;DHT22;1466;48.778;9.166;2022-08-21T07:05:28;21.00;84.00
2913;DHT22;1466;48.778;9.166;2022-08-21T07:07:54;21.10;84.20
2913;DHT22;1466;48.778;9.166;2022-08-21T07:10:20;21.10;84.10
2913;DHT22;1466;48.778;9.166;2022-08-21T07:12:45;21.30;84.10
2913;DHT22;1466;48.778;9.166;2022-08-21T07:15:11;21.30;83.80
2913;DHT22;1466;48.778;9.166;2022-08-21T07:17:37;21.40;83.60
2913;DHT22;1466;48.778;9.166;2022-08-21T07:20:04;21.50;83.20
2913;DHT22;1466;48.778;9.166;2022-08-21T07:22:30;21.50;82.60
2913;DHT22;1466;48.778;9.166;2022-08-21T07:24:56;21.40;82.70
2913;DHT22;1466;48.778;9.166;2022-08-21T07:27:22;21.40;82.70
2913;DHT22;1466;48.778;9.166;2022-08-21T07:29:47;21.50;82.80
2913;DHT22;1466;48.778;9.166;2022-08-21T07:32:14;21.60;82.80
2913;DHT22;1466;48.778;9.166;2022-08-21T07:34:40;21.80;82.70
2913;DHT22;1466;48.778;9.166;2022-08-21T07:37:06;21.90;82.40
2913;DHT22;1466;48.778;9.166;2022-08-21T07:39:31;21.90;82.10
2913;DHT22;1466;48.778;9.166;2022-08-21T07:41:57;22.00;81.80
2913;DHT22;1466;48.778;9.166;2022-08-21T07:44:23;22.00;81.90
2913;DHT22;1466;48.778;9.166;2022-08-21T07:46:48;22.10;81.90
2913;DHT22;1466;48.778;9.166;2022-08-21T07:49:14;22.20;81.90
2913;DHT22;1466;48.778;9.166;2022-08-21T07:51:40;22.20;81.70
2913;DHT22;1466;48.778;9.166;2022-08-21T07:54:06;22.40;81.80
2913;DHT22;1466;48.778;9.166;2022-08-21T07:56:31;22.50;81.80
2913;DHT22;1466;48.778;9.166;2022-08-21T07:58:57;22.60;81.60
2913;DHT22;1466;48.778;9.166;2022-08-21T08:01:24;22.60;81.30
2913;DHT22;1466;48.778;9.166;2022-08-21T08:03:50;22.60;81.60
2913;DHT22;1466;48.778;9.166;2022-08-21T08:06:16;22.70;81.70
2913;DHT22;1466;48.778;9.166;2022-08-21T08:08:44;22.80;81.70
2913;DHT22;1466;48.778;9.166;2022-08-21T08:11:11;22.80;81.70
2913;DHT22;1466;48.778;9.166;2022-08-21T08:13:42;22.80;81.80
2913;DHT22;1466;48.778;9.166;2022-08-21T08:16:08;22.90;82.10
2913;DHT22;1466;48.778;9.166;2022-08-21T08:18:34;23.00;81.90
2913;DHT22;1466;48.778;9.166;2022-08-21T08:20:59;23.10;81.70
2913;DHT22;1466;48.778;9.166;2022-08-21T08:23:25;23.20;81.40
2913;DHT22;1466;48.778;9.166;2022-08-21T08:25:52;23.30;81.10
2913;DHT22;1466;48.778;9.166;2022-08-21T08:28:18;23.40;80.90
2913;DHT22;1466;48.778;9.166;2022-08-21T08:30:46;23.40;80.40
2913;DHT22;1466;48.778;9.166;2022-08-21T08:33:12;23.50;80.00
2913;DHT22;1466;48.778;9.166;2022-08-21T08:35:38;23.50;79.70
2913;DHT22;1466;48.778;9.166;2022-08-21T08:38:05;23.60;79.70
2913;DHT22;1466;48.778;9.166;2022-08-21T08:43:11;23.60;78.80
2913;DHT22;1466;48.778;9.166;2022-08-21T08:45:39;23.70;78.80
2913;DHT22;1466;48.778;9.166;2022-08-21T08:48:08;23.70;78.30
2913;DHT22;1466;48.778;9.166;2022-08-21T08:50:48;23.80;78.30
2913;DHT22;1466;48.778;9.166;2022-08-21T08:53:22;23.80;77.50
2913;DHT22;1466;48.778;9.166;2022-08-21T08:55:52;23.90;77.30
2913;DHT22;1466;48.778;9.166;2022-08-21T08:58:39;24.00;77.00
2913;DHT22;1466;48.778;9.166;2022-08-21T09:01:17;24.10;76.20
2913;DHT22;1466;48.778;9.166;2022-08-21T09:03:45;24.10;74.70
2913;DHT22;1466;48.778;9.166;2022-08-21T09:06:37;24.20;74.70
2913;DHT22;1466;48.778;9.166;2022-08-21T09:09:43;24.20;74.50
2913;DHT22;1466;48.778;9.166;2022-08-21T09:26:00;24.90;71.50
2913;DHT22;1466;48.778;9.166;2022-08-21T09:28:31;25.00;70.30
2913;DHT22;1466;48.778;9.166;2022-08-21T09:30:57;25.10;70.00
2913;DHT22;1466;48.778;9.166;2022-08-21T09:33:28;25.20;68.20
2913;DHT22;1466;48.778;9.166;2022-08-21T09:35:55;25.90;67.50
2913;DHT22;1466;48.778;9.166;2022-08-21T09:38:27;26.60;66.40
2913;DHT22;1466;48.778;9.166;2022-08-21T09:41:06;27.10;65.40
2913;DHT22;1466;48.778;9.166;2022-08-21T09:43:33;27.60;65.00
2913;DHT22;1466;48.778;9.166;2022-08-21T09:48:47;28.00;63.10
2913;DHT22;1466;48.778;9.166;2022-08-21T09:51:25;28.10;63.10
2913;DHT22;1466;48.778;9.166;2022-08-21T09:53:58;28.20;63.20
2913;DHT22;1466;48.778;9.166;2022-08-21T09:59:36;28.20;62.90
2913;DHT22;1466;48.778;9.166;2022-08-21T10:02:30;28.10;62.10
2913;DHT22;1466;48.778;9.166;2022-08-21T10:05:01;27.90;62.50
2913;DHT22;1466;48.778;9.166;2022-08-21T10:07:30;27.60;62.90
2913;DHT22;1466;48.778;9.166;2022-08-21T10:10:36;27.50;63.20
2913;DHT22;1466;48.778;9.166;2022-08-21T10:12:58;27.50;63.50
2913;DHT22;1466;48.778;9.166;2022-08-21T10:21:05;26.90;64.00
2913;DHT22;1466;48.778;9.166;2022-08-21T10:26:10;26.60;65.00
2913;DHT22;1466;48.778;9.166;2022-08-21T10:31:21;26.30;65.20
2913;DHT22;1466;48.778;9.166;2022-08-21T10:36:36;26.20;65.50
2913;DHT22;1466;48.778;9.166;2022-08-21T10:39:21;26.30;65.60
2913;DHT22;1466;48.778;9.166;2022-08-21T10:47:32;26.70;64.90
2913;DHT22;1466;48.778;9.166;2022-08-21T10:50:10;26.80;64.70
2913;DHT22;1466;48.778;9.166;2022-08-21T10:55:36;27.10;64.10
2913;DHT22;1466;48.778;9.166;2022-08-21T10:58:09;27.20;63.30
2913;DHT22;1466;48.778;9.166;2022-08-21T11:00:48;27.20;63.30
2913;DHT22;1466;48.778;9.166;2022-08-21T11:03:16;27.30;63.30
2913;DHT22;1466;48.778;9.166;2022-08-21T11:05:54;27.40;62.90
2913;DHT22;1466;48.778;9.166;2022-08-21T11:08:28;27.40;62.40
2913;DHT22;1466;48.778;9.166;2022-08-21T11:11:08;27.40;62.50
2913;DHT22;1466;48.778;9.166;2022-08-21T11:18:49;27.20;62.60
2913;DHT22;1466;48.778;9.166;2022-08-21T11:23:47;27.40;62.50
2913;DHT22;1466;48.778;9.166;2022-08-21T11:26:23;27.50;62.60
2913;DHT22;1466;48.778;9.166;2022-08-21T11:28:54;27.60;62.50
2913;DHT22;1466;48.778;9.166;2022-08-21T11:45:31;27.20;62.30
2913;DHT22;1466;48.778;9.166;2022-08-21T11:48:31;27.20;62.20
2913;DHT22;1466;48.778;9.166;2022-08-21T11:51:01;27.30;62.00
2913;DHT22;1466;48.778;9.166;2022-08-21T11:53:37;27.40;61.90
2913;DHT22;1466;48.778;9.166;2022-08-21T11:56:15;27.50;61.50
2913;DHT22;1466;48.778;9.166;2022-08-21T11:58:47;27.50;61.20
2913;DHT22;1466;48.778;9.166;2022-08-21T12:01:20;27.60;60.90
2913;DHT22;1466;48.778;9.166;2022-08-21T12:04:10;27.50;61.20
2913;DHT22;1466;48.778;9.166;2022-08-21T12:06:42;27.50;60.70
2913;DHT22;1466;48.778;9.166;2022-08-21T12:09:31;27.50;61.30
2913;DHT22;1466;48.778;9.166;2022-08-21T12:12:11;27.40;60.90
2913;DHT22;1466;48.778;9.166;2022-08-21T12:14:43;27.40;60.90
2913;DHT22;1466;48.778;9.166;2022-08-21T12:17:21;27.60;61.10
2913;DHT22;1466;48.778;9.166;2022-08-21T12:20:02;27.70;60.90
2913;DHT22;1466;48.778;9.166;2022-08-21T12:22:40;27.80;60.10
2913;DHT22;1466;48.778;9.166;2022-08-21T12:25:08;27.80;59.50
2913;DHT22;1466;48.778;9.166;2022-08-21T12:27:45;27.80;59.50
2913;DHT22;1466;48.778;9.166;2022-08-21T12:33:00;27.80;59.20
2913;DHT22;1466;48.778;9.166;2022-08-21T12:35:37;27.80;59.10
2913;DHT22;1466;48.778;9.166;2022-08-21T12:40:57;27.70;59.30
2913;DHT22;1466;48.778;9.166;2022-08-21T12:43:35;27.70;59.40
2913;DHT22;1466;48.778;9.166;2022-08-21T12:46:01;27.80;59.40
2913;DHT22;1466;48.778;9.166;2022-08-21T12:50:58;27.90;59.40
2913;DHT22;1466;48.778;9.166;2022-08-21T12:53:36;28.00;59.10
2913;DHT22;1466;48.778;9.166;2022-08-21T12:56:09;28.00;59.00
2913;DHT22;1466;48.778;9.166;2022-08-21T12:58:35;28.00;59.00
2913;DHT22;1466;48.778;9.166;2022-08-21T13:01:26;27.90;59.60
2913;DHT22;1466;48.778;9.166;2022-08-21T13:03:54;27.90;59.60
2913;DHT22;1466;48.778;9.166;2022-08-21T13:06:23;27.80;59.20
2913;DHT22;1466;48.778;9.166;2022-08-21T13:08:55;27.80;59.40
2913;DHT22;1466;48.778;9.166;2022-08-21T13:11:23;27.70;59.50
2913;DHT22;1466;48.778;9.166;2022-08-21T13:13:51;27.40;59.50
2913;DHT22;1466;48.778;9.166;2022-08-21T13:16:27;27.20;59.60
2913;DHT22;1466;48.778;9.166;2022-08-21T13:18:59;27.20;59.90
2913;DHT22;1466;48.778;9.166;2022-08-21T13:21:40;27.10;59.90
2913;DHT22;1466;48.778;9.166;2022-08-21T13:26:47;26.90;60.00
2913;DHT22;1466;48.778;9.166;2022-08-21T13:29:15;26.80;59.90
2913;DHT22;1466;48.778;9.166;2022-08-21T13:31:48;26.90;59.90
2913;DHT22;1466;48.778;9.166;2022-08-21T13:34:15;27.00;60.00
2913;DHT22;1466;48.778;9.166;2022-08-21T13:36:43;27.10;60.00
2913;DHT22;1466;48.778;9.166;2022-08-21T13:39:11;27.20;59.80
2913;DHT22;1466;48.778;9.166;2022-08-21T13:41:40;27.30;59.80
2913;DHT22;1466;48.778;9.166;2022-08-21T13:44:22;27.30;59.60
2913;DHT22;1466;48.778;9.166;2022-08-21T13:46:52;27.40;59.20
2913;DHT22;1466;48.778;9.166;2022-08-21T13:49:30;27.50;58.70
2913;DHT22;1466;48.778;9.166;2022-08-21T13:51:56;27.60;58.70
2913;DHT22;1466;48.778;9.166;2022-08-21T13:54:25;27.70;58.80
2913;DHT22;1466;48.778;9.166;2022-08-21T13:56:53;27.80;58.80
2913;DHT22;1466;48.778;9.166;2022-08-21T14:02:26;27.90;58.80
2913;DHT22;1466;48.778;9.166;2022-08-21T14:04:55;28.00;58.80
2913;DHT22;1466;48.778;9.166;2022-08-21T14:07:29;28.00;58.10
2913;DHT22;1466;48.778;9.166;2022-08-21T14:10:01;28.00;58.40
2913;DHT22;1466;48.778;9.166;2022-08-21T14:12:38;28.00;58.30
2913;DHT22;1466;48.778;9.166;2022-08-21T14:15:06;27.90;58.00
2913;DHT22;1466;48.778;9.166;2022-08-21T14:17:35;27.90;57.80
2913;DHT22;1466;48.778;9.166;2022-08-21T14:20:04;27.90;57.90
2913;DHT22;1466;48.778;9.166;2022-08-21T14:27:38;28.00;58.40
2913;DHT22;1466;48.778;9.166;2022-08-21T14:30:16;28.00;58.00
2913;DHT22;1466;48.778;9.166;2022-08-21T14:32:42;28.00;58.00
2913;DHT22;1466;48.778;9.166;2022-08-21T14:35:08;28.00;58.00
2913;DHT22;1466;48.778;9.166;2022-08-21T14:37:34;28.00;58.20
2913;DHT22;1466;48.778;9.166;2022-08-21T14:39:59;28.00;58.20
2913;DHT22;1466;48.778;9.166;2022-08-21T14:42:25;28.00;57.60
2913;DHT22;1466;48.778;9.166;2022-08-21T14:44:51;28.00;57.70
2913;DHT22;1466;48.778;9.166;2022-08-21T14:47:19;28.00;57.40
2913;DHT22;1466;48.778;9.166;2022-08-21T14:49:44;28.10;57.90
2913;DHT22;1466;48.778;9.166;2022-08-21T14:52:10;28.10;58.20
2913;DHT22;1466;48.778;9.166;2022-08-21T14:54:35;28.10;57.40
2913;DHT22;1466;48.778;9.166;2022-08-21T14:57:06;28.10;57.50
2913;DHT22;1466;48.778;9.166;2022-08-21T14:59:32;28.10;57.80
2913;DHT22;1466;48.778;9.166;2022-08-21T15:01:58;28.10;57.50
2913;DHT22;1466;48.778;9.166;2022-08-21T15:04:24;28.10;57.50
2913;DHT22;1466;48.778;9.166;2022-08-21T15:06:50;28.20;57.40
2913;DHT22;1466;48.778;9.166;2022-08-21T15:09:15;28.20;57.30
2913;DHT22;1466;48.778;9.166;2022-08-21T15:11:41;28.30;57.30
2913;DHT22;1466;48.778;9.166;2022-08-21T15:14:11;28.30;57.30
2913;DHT22;1466;48.778;9.166;2022-08-21T15:16:38;28.10;57.40
2913;DHT22;1466;48.778;9.166;2022-08-21T15:19:04;27.90;57.80
2913;DHT22;1466;48.778;9.166;2022-08-21T15:21:30;27.80;57.10
2913;DHT22;1466;48.778;9.166;2022-08-21T15:23:55;27.70;57.10
2913;DHT22;1466;48.778;9.166;2022-08-21T15:26:22;27.80;57.30
2913;DHT22;1466;48.778;9.166;2022-08-21T15:28:48;27.80;56.50
2913;DHT22;1466;48.778;9.166;2022-08-21T15:31:14;27.80;56.50
2913;DHT22;1466;48.778;9.166;2022-08-21T15:33:40;27.90;56.70
2913;DHT22;1466;48.778;9.166;2022-08-21T15:36:05;28.00;56.60
2913;DHT22;1466;48.778;9.166;2022-08-21T15:38:31;28.10;56.70
2913;DHT22;1466;48.778;9.166;2022-08-21T15:40:57;28.20;56.60
2913;DHT22;1466;48.778;9.166;2022-08-21T15:43:26;28.20;55.80
2913;DHT22;1466;48.778;9.166;2022-08-21T15:45:52;28.20;55.50
2913;DHT22;1466;48.778;9.166;2022-08-21T15:48:18;28.20;55.70
2913;DHT22;1466;48.778;9.166;2022-08-21T15:50:44;28.20;55.70
2913;DHT22;1466;48.778;9.166;2022-08-21T15:53:09;28.20;55.70
2913;DHT22;1466;48.778;9.166;2022-08-21T15:55:35;28.30;55.50
2913;DHT22;1466;48.778;9.166;2022-08-21T15:58:01;28.20;55.30
2913;DHT22;1466;48.778;9.166;2022-08-21T16:00:29;28.20;55.00
2913;DHT22;1466;48.778;9.166;2022-08-21T16:02:58;28.20;55.40
2913;DHT22;1466;48.778;9.166;2022-08-21T16:05:24;28.20;55.80
2913;DHT22;1466;48.778;9.166;2022-08-21T16:07:51;28.20;56.20
2913;DHT22;1466;48.778;9.166;2022-08-21T16:10:21;28.20;56.00
2913;DHT22;1466;48.778;9.166;2022-08-21T16:12:54;28.20;55.30
2913;DHT22;1466;48.778;9.166;2022-08-21T16:15:21;28.20;55.70
2913;DHT22;1466;48.778;9.166;2022-08-21T16:17:48;28.20;55.80
2913;DHT22;1466;48.778;9.166;2022-08-21T16:20:19;28.10;55.40
2913;DHT22;1466;48.778;9.166;2022-08-21T16:22:46;28.20;55.60
2913;DHT22;1466;48.778;9.166;2022-08-21T16:25:12;28.10;56.40
2913;DHT22;1466;48.778;9.166;2022-08-21T16:27:40;28.20;56.10
2913;DHT22;1466;48.778;9.166;2022-08-21T16:30:07;28.10;55.40
2913;DHT22;1466;48.778;9.166;2022-08-21T16:32:33;28.10;55.70
2913;DHT22;1466;48.778;9.166;2022-08-21T16:35:00;28.00;56.70
2913;DHT22;1466;48.778;9.166;2022-08-21T16:37:26;28.10;56.40
2913;DHT22;1466;48.778;9.166;2022-08-21T16:39:52;28.00;56.80
2913;DHT22;1466;48.778;9.166;2022-08-21T16:42:21;28.00;57.00
2913;DHT22;1466;48.778;9.166;2022-08-21T16:44:48;27.90;56.10
2913;DHT22;1466;48.778;9.166;2022-08-21T16:47:13;27.90;55.40
2913;DHT22;1466;48.778;9.166;2022-08-21T16:49:40;27.80;55.20
2913;DHT22;1466;48.778;9.166;2022-08-21T16:52:06;27.80;55.10
2913;DHT22;1466;48.778;9.166;2022-08-21T16:54:32;27.80;56.00
2913;DHT22;1466;48.778;9.166;2022-08-21T16:56:58;27.80;56.20
2913;DHT22;1466;48.778;9.166;2022-08-21T16:59:24;27.70;56.60
2913;DHT22;1466;48.778;9.166;2022-08-21T17:01:52;27.70;56.20
2913;DHT22;1466;48.778;9.166;2022-08-21T17:04:18;27.70;56.00
2913;DHT22;1466;48.778;9.166;2022-08-21T17:06:46;27.70;56.20
2913;DHT22;1466;48.778;9.166;2022-08-21T17:09:12;27.70;56.90
2913;DHT22;1466;48.778;9.166;2022-08-21T17:11:40;27.70;56.40
2913;DHT22;1466;48.778;9.166;2022-08-21T17:14:16;27.70;56.50
2913;DHT22;1466;48.778;9.166;2022-08-21T17:16:46;27.60;56.30
2913;DHT22;1466;48.778;9.166;2022-08-21T17:19:13;27.60;57.10
2913;DHT22;1466;48.778;9.166;2022-08-21T17:21:38;27.50;56.80
2913;DHT22;1466;48.778;9.166;2022-08-21T17:24:04;27.50;56.80
2913;DHT22;1466;48.778;9.166;2022-08-21T17:26:30;27.50;56.70
2913;DHT22;1466;48.778;9.166;2022-08-21T17:28:56;27.50;55.30
2913;DHT22;1466;48.778;9.166;2022-08-21T17:31:22;27.40;55.80
2913;DHT22;1466;48.778;9.166;2022-08-21T17:33:50;27.40;56.20
2913;DHT22;1466;48.778;9.166;2022-08-21T17:36:22;27.30;56.40
2913;DHT22;1466;48.778;9.166;2022-08-21T17:38:48;27.30;56.70